sensor_id;sensor_type;location;lat;lon;timestamp;P1;durP1;ratioP1;P2;durP2;ratioP2
22441;SDS011;11388;54.456;9.752;2023-01-30T00:00:31;23.90;;;9.30;;
22441;SDS011;11388;54.456;9.752;2023-01-30T00:02:58;23.77;;;9.00;;
22441;SDS011;11388;54.456;9.752;2023-01-30T00:05:23;21.20;;;9.60;;
22441;SDS011;11388;54.456;9.752;2023-01-30T00:07:49;21.92;;;8.90;;
22441;SDS011;11388;54.456;9.752;2023-01-30T00:10:15;21.10;;;9.52;;
22441;SDS011;11388;54.456;9.752;2023-01-30T00:12:41;27.27;;;9.63;;
22441;SDS011;11388;54.456;9.752;2023-01-30T00:15:07;21.58;;;8.88;;
22441;SDS011;11388;54.456;9.752;2023-01-30T00:17:32;22.35;;;9.32;;
22441;SDS011;11388;54.456;9.752;2023-01-30T00:19:58;23.90;;;9.50;;
22441;SDS011;11388;54.456;9.752;2023-01-30T00:22:24;22.83;;;9.50;;
22441;SDS011;11388;54.456;9.752;2023-01-30T00:24:50;19.45;;;9.07;;
22441;SDS011;11388;54.456;9.752;2023-01-30T00:27:15;17.92;;;9.25;;
22441;SDS011;11388;54.456;9.752;2023-01-30T00:29:41;18.15;;;9.20;;
22441;SDS011;11388;54.456;9.752;2023-01-30T00:32:06;21.83;;;8.60;;
22441;SDS011;11388;54.456;9.752;2023-01-30T00:34:32;22.58;;;9.63;;
22441;SDS011;11388;54.456;9.752;2023-01-30T00:36:58;17.90;;;8.70;;
22441;SDS011;11388;54.456;9.752;2023-01-30T00:39:24;18.98;;;9.10;;
22441;SDS011;11388;54.456;9.752;2023-01-30T00:41:50;18.05;;;8.48;;
22441;SDS011;11388;54.456;9.752;2023-01-30T00:44:34;22.15;;;8.70;;
22441;SDS011;11388;54.456;9.752;2023-01-30T00:47:18;22.73;;;8.30;;
22441;SDS011;11388;54.456;9.752;2023-01-30T00:49:44;19.65;;;7.88;;
22441;SDS011;11388;54.456;9.752;2023-01-30T00:52:09;22.00;;;8.23;;
22441;SDS011;11388;54.456;9.752;2023-01-30T00:54:35;21.80;;;8.38;;
22441;SDS011;11388;54.456;9.752;2023-01-30T00:57:01;17.13;;;7.55;;
22441;SDS011;11388;54.456;9.752;2023-01-30T00:59:27;16.95;;;7.40;;
22441;SDS011;11388;54.456;9.752;2023-01-30T01:01:52;17.33;;;7.88;;
22441;SDS011;11388;54.456;9.752;2023-01-30T01:04:18;16.33;;;8.10;;
22441;SDS011;11388;54.456;9.752;2023-01-30T01:06:44;20.23;;;7.80;;
22441;SDS011;11388;54.456;9.752;2023-01-30T01:09:10;17.38;;;6.82;;
22441;SDS011;11388;54.456;9.752;2023-01-30T01:11:36;11.75;;;5.60;;
22441;SDS011;11388;54.456;9.752;2023-01-30T01:14:02;14.65;;;5.82;;
22441;SDS011;11388;54.456;9.752;2023-01-30T01:16:29;12.80;;;5.43;;
22441;SDS011;11388;54.456;9.752;2023-01-30T01:18:56;12.40;;;5.20;;
22441;SDS011;11388;54.456;9.752;2023-01-30T01:21:22;13.48;;;5.03;;
22441;SDS011;11388;54.456;9.752;2023-01-30T01:23:53;10.70;;;4.90;;
22441;SDS011;11388;54.456;9.752;2023-01-30T01:26:20;12.27;;;4.80;;
22441;SDS011;11388;54.456;9.752;2023-01-30T01:28:47;12.10;;;4.20;;
22441;SDS011;11388;54.456;9.752;2023-01-30T01:31:13;10.85;;;4.53;;
22441;SDS011;11388;54.456;9.752;2023-01-30T01:33:40;12.05;;;4.30;;
22441;SDS011;11388;54.456;9.752;2023-01-30T01:36:06;10.40;;;4.10;;
22441;SDS011;11388;54.456;9.752;2023-01-30T01:38:32;14.00;;;4.28;;
22441;SDS011;11388;54.456;9.752;2023-01-30T01:40:58;11.23;;;4.00;;
22441;SDS011;11388;54.456;9.752;2023-01-30T01:43:35;11.93;;;4.10;;
22441;SDS011;11388;54.456;9.752;2023-01-30T01:48:29;7.78;;;3.00;;
22441;SDS011;11388;54.456;9.752;2023-01-30T01:51:02;8.27;;;3.35;;
22441;SDS011;11388;54.456;9.752;2023-01-30T01:53:34;10.77;;;3.78;;
22441;SDS011;11388;54.456;9.752;2023-01-30T01:56:04;7.22;;;2.88;;
22441;SDS011;11388;54.456;9.752;2023-01-30T01:58:34;10.05;;;3.38;;
22441;SDS011;11388;54.456;9.752;2023-01-30T02:01:05;7.55;;;2.67;;
22441;SDS011;11388;54.456;9.752;2023-01-30T02:03:32;7.55;;;2.67;;
22441;SDS011;11388;54.456;9.752;2023-01-30T02:06:02;6.72;;;2.53;;
22441;SDS011;11388;54.456;9.752;2023-01-30T02:08:39;5.70;;;2.33;;
22441;SDS011;11388;54.456;9.752;2023-01-30T02:11:13;7.05;;;2.38;;
22441;SDS011;11388;54.456;9.752;2023-01-30T02:13:45;7.03;;;2.50;;
22441;SDS011;11388;54.456;9.752;2023-01-30T02:16:12;9.40;;;2.83;;
22441;SDS011;11388;54.456;9.752;2023-01-30T02:18:38;4.70;;;1.10;;
22441;SDS011;11388;54.456;9.752;2023-01-30T02:46:10;11.85;;;1.83;;
22441;SDS011;11388;54.456;9.752;2023-01-30T02:48:49;11.48;;;1.75;;
22441;SDS011;11388;54.456;9.752;2023-01-30T02:51:30;12.82;;;2.10;;
22441;SDS011;11388;54.456;9.752;2023-01-30T02:53:59;8.57;;;1.50;;
22441;SDS011;11388;54.456;9.752;2023-01-30T02:56:25;10.68;;;2.25;;
22441;SDS011;11388;54.456;9.752;2023-01-30T02:58:52;13.65;;;2.20;;
22441;SDS011;11388;54.456;9.752;2023-01-30T03:15:23;20.15;;;2.72;;
22441;SDS011;11388;54.456;9.752;2023-01-30T03:17:54;13.70;;;2.00;;
22441;SDS011;11388;54.456;9.752;2023-01-30T03:20:20;13.93;;;2.50;;
22441;SDS011;11388;54.456;9.752;2023-01-30T03:22:46;11.40;;;2.25;;
22441;SDS011;11388;54.456;9.752;2023-01-30T03:25:18;12.48;;;2.20;;
22441;SDS011;11388;54.456;9.752;2023-01-30T03:27:47;15.43;;;2.55;;
22441;SDS011;11388;54.456;9.752;2023-01-30T03:30:15;11.02;;;2.63;;
22441;SDS011;11388;54.456;9.752;2023-01-30T03:32:41;15.70;;;2.42;;
22441;SDS011;11388;54.456;9.752;2023-01-30T03:35:07;15.50;;;2.28;;
22441;SDS011;11388;54.456;9.752;2023-01-30T03:37:33;14.98;;;2.65;;
22441;SDS011;11388;54.456;9.752;2023-01-30T03:39:59;11.30;;;2.45;;
22441;SDS011;11388;54.456;9.752;2023-01-30T03:42:25;13.52;;;2.50;;
22441;SDS011;11388;54.456;9.752;2023-01-30T03:44:51;13.80;;;2.67;;
22441;SDS011;11388;54.456;9.752;2023-01-30T03:47:17;16.42;;;2.45;;
22441;SDS011;11388;54.456;9.752;2023-01-30T03:49:42;16.75;;;2.47;;
22441;SDS011;11388;54.456;9.752;2023-01-30T03:52:08;12.77;;;2.90;;
22441;SDS011;11388;54.456;9.752;2023-01-30T03:54:34;13.07;;;2.65;;
22441;SDS011;11388;54.456;9.752;2023-01-30T03:56:59;16.85;;;2.53;;
22441;SDS011;11388;54.456;9.752;2023-01-30T03:59:25;15.88;;;2.70;;
22441;SDS011;11388;54.456;9.752;2023-01-30T04:01:50;13.57;;;2.90;;
22441;SDS011;11388;54.456;9.752;2023-01-30T04:04:16;14.73;;;4.45;;
22441;SDS011;11388;54.456;9.752;2023-01-30T04:06:42;14.68;;;3.05;;
22441;SDS011;11388;54.456;9.752;2023-01-30T04:09:07;13.07;;;2.85;;
22441;SDS011;11388;54.456;9.752;2023-01-30T04:11:33;14.65;;;2.85;;
22441;SDS011;11388;54.456;9.752;2023-01-30T04:13:59;17.15;;;3.05;;
22441;SDS011;11388;54.456;9.752;2023-01-30T04:16:25;17.80;;;3.38;;
22441;SDS011;11388;54.456;9.752;2023-01-30T04:18:51;13.40;;;2.20;;
22441;SDS011;11388;54.456;9.752;2023-01-30T04:21:17;13.25;;;2.83;;
22441;SDS011;11388;54.456;9.752;2023-01-30T04:23:43;15.10;;;2.55;;
22441;SDS011;11388;54.456;9.752;2023-01-30T04:26:09;16.45;;;3.13;;
22441;SDS011;11388;54.456;9.752;2023-01-30T04:28:35;17.80;;;3.35;;
22441;SDS011;11388;54.456;9.752;2023-01-30T04:31:01;15.35;;;2.88;;
22441;SDS011;11388;54.456;9.752;2023-01-30T04:33:26;12.68;;;3.33;;
22441;SDS011;11388;54.456;9.752;2023-01-30T04:35:53;21.23;;;3.75;;
22441;SDS011;11388;54.456;9.752;2023-01-30T04:38:20;18.55;;;3.47;;
22441;SDS011;11388;54.456;9.752;2023-01-30T04:40:50;20.55;;;3.40;;
22441;SDS011;11388;54.456;9.752;2023-01-30T04:43:17;19.17;;;3.63;;
22441;SDS011;11388;54.456;9.752;2023-01-30T04:45:43;18.58;;;4.15;;
22441;SDS011;11388;54.456;9.752;2023-01-30T04:48:10;16.05;;;3.08;;
22441;SDS011;11388;54.456;9.752;2023-01-30T04:50:35;21.15;;;3.30;;
22441;SDS011;11388;54.456;9.752;2023-01-30T04:53:01;18.88;;;3.25;;
22441;SDS011;11388;54.456;9.752;2023-01-30T04:55:27;18.30;;;3.70;;
22441;SDS011;11388;54.456;9.752;2023-01-30T04:57:53;22.85;;;3.75;;
22441;SDS011;11388;54.456;9.752;2023-01-30T05:00:19;22.70;;;3.80;;
22441;SDS011;11388;54.456;9.752;2023-01-30T05:02:45;16.98;;;3.28;;
22441;SDS011;11388;54.456;9.752;2023-01-30T05:05:11;18.70;;;3.50;;
22441;SDS011;11388;54.456;9.752;2023-01-30T05:07:36;20.40;;;3.65;;
22441;SDS011;11388;54.456;9.752;2023-01-30T05:10:02;21.27;;;3.63;;
22441;SDS011;11388;54.456;9.752;2023-01-30T05:12:28;19.52;;;3.75;;
22441;SDS011;11388;54.456;9.752;2023-01-30T05:14:54;18.90;;;3.15;;
22441;SDS011;11388;54.456;9.752;2023-01-30T05:17:20;14.70;;;3.22;;
22441;SDS011;11388;54.456;9.752;2023-01-30T05:19:46;17.30;;;3.83;;
22441;SDS011;11388;54.456;9.752;2023-01-30T05:22:12;17.13;;;3.50;;
22441;SDS011;11388;54.456;9.752;2023-01-30T05:24:37;15.55;;;3.63;;
22441;SDS011;11388;54.456;9.752;2023-01-30T05:27:03;19.48;;;3.75;;
22441;SDS011;11388;54.456;9.752;2023-01-30T05:29:29;19.50;;;3.60;;
22441;SDS011;11388;54.456;9.752;2023-01-30T05:31:55;20.65;;;3.92;;
22441;SDS011;11388;54.456;9.752;2023-01-30T05:34:20;15.10;;;3.38;;
22441;SDS011;11388;54.456;9.752;2023-01-30T05:36:46;16.98;;;3.90;;
22441;SDS011;11388;54.456;9.752;2023-01-30T05:39:12;19.02;;;3.08;;
22441;SDS011;11388;54.456;9.752;2023-01-30T05:41:38;17.15;;;3.20;;
22441;SDS011;11388;54.456;9.752;2023-01-30T05:44:04;17.35;;;3.05;;
22441;SDS011;11388;54.456;9.752;2023-01-30T05:46:29;19.42;;;3.90;;
22441;SDS011;11388;54.456;9.752;2023-01-30T05:48:55;16.65;;;3.00;;
22441;SDS011;11388;54.456;9.752;2023-01-30T05:51:22;17.52;;;3.30;;
22441;SDS011;11388;54.456;9.752;2023-01-30T05:53:50;17.23;;;2.90;;
22441;SDS011;11388;54.456;9.752;2023-01-30T05:56:17;18.95;;;3.65;;
22441;SDS011;11388;54.456;9.752;2023-01-30T05:58:43;19.02;;;3.78;;
22441;SDS011;11388;54.456;9.752;2023-01-30T06:01:18;15.82;;;3.80;;
22441;SDS011;11388;54.456;9.752;2023-01-30T06:03:44;24.88;;;4.32;;
22441;SDS011;11388;54.456;9.752;2023-01-30T06:06:10;17.13;;;3.30;;
22441;SDS011;11388;54.456;9.752;2023-01-30T06:08:36;17.55;;;3.38;;
22441;SDS011;11388;54.456;9.752;2023-01-30T06:11:09;19.67;;;3.30;;
22441;SDS011;11388;54.456;9.752;2023-01-30T06:13:36;17.08;;;3.35;;
22441;SDS011;11388;54.456;9.752;2023-01-30T06:16:03;18.13;;;3.45;;
22441;SDS011;11388;54.456;9.752;2023-01-30T06:18:30;19.85;;;3.65;;
22441;SDS011;11388;54.456;9.752;2023-01-30T06:20:55;19.52;;;3.70;;
22441;SDS011;11388;54.456;9.752;2023-01-30T06:23:21;15.98;;;3.17;;
22441;SDS011;11388;54.456;9.752;2023-01-30T06:25:50;16.70;;;3.40;;
22441;SDS011;11388;54.456;9.752;2023-01-30T06:28:17;17.70;;;3.22;;
22441;SDS011;11388;54.456;9.752;2023-01-30T06:30:43;20.15;;;3.35;;
22441;SDS011;11388;54.456;9.752;2023-01-30T06:33:09;16.98;;;3.50;;
22441;SDS011;11388;54.456;9.752;2023-01-30T06:35:39;16.42;;;3.40;;
22441;SDS011;11388;54.456;9.752;2023-01-30T06:38:05;20.58;;;3.55;;
22441;SDS011;11388;54.456;9.752;2023-01-30T06:40:35;16.42;;;3.33;;
22441;SDS011;11388;54.456;9.752;2023-01-30T06:43:10;16.10;;;3.53;;
22441;SDS011;11388;54.456;9.752;2023-01-30T06:45:36;15.18;;;3.35;;
22441;SDS011;11388;54.456;9.752;2023-01-30T06:48:02;20.60;;;3.95;;
22441;SDS011;11388;54.456;9.752;2023-01-30T06:50:28;18.90;;;3.88;;
22441;SDS011;11388;54.456;9.752;2023-01-30T06:52:55;18.05;;;3.20;;
22441;SDS011;11388;54.456;9.752;2023-01-30T06:55:22;17.38;;;3.65;;
22441;SDS011;11388;54.456;9.752;2023-01-30T06:57:50;17.33;;;3.75;;
22441;SDS011;11388;54.456;9.752;2023-01-30T07:00:35;22.08;;;3.70;;
22441;SDS011;11388;54.456;9.752;2023-01-30T07:03:03;18.67;;;3.42;;
22441;SDS011;11388;54.456;9.752;2023-01-30T07:05:30;17.92;;;3.72;;
22441;SDS011;11388;54.456;9.752;2023-01-30T07:07:56;12.25;;;2.80;;
22441;SDS011;11388;54.456;9.752;2023-01-30T07:10:22;20.77;;;3.88;;
22441;SDS011;11388;54.456;9.752;2023-01-30T07:12:50;17.58;;;3.42;;
22441;SDS011;11388;54.456;9.752;2023-01-30T07:15:15;18.15;;;3.40;;
22441;SDS011;11388;54.456;9.752;2023-01-30T07:17:41;18.65;;;3.75;;
22441;SDS011;11388;54.456;9.752;2023-01-30T07:20:08;23.88;;;4.18;;
22441;SDS011;11388;54.456;9.752;2023-01-30T07:22:35;19.40;;;3.33;;
22441;SDS011;11388;54.456;9.752;2023-01-30T07:25:00;18.85;;;4.38;;
22441;SDS011;11388;54.456;9.752;2023-01-30T07:27:26;18.85;;;4.13;;
22441;SDS011;11388;54.456;9.752;2023-01-30T07:29:52;17.65;;;3.67;;
22441;SDS011;11388;54.456;9.752;2023-01-30T07:32:18;17.00;;;3.47;;
22441;SDS011;11388;54.456;9.752;2023-01-30T07:34:44;19.10;;;4.03;;
22441;SDS011;11388;54.456;9.752;2023-01-30T07:37:10;24.30;;;4.32;;
22441;SDS011;11388;54.456;9.752;2023-01-30T07:39:36;20.80;;;4.45;;
22441;SDS011;11388;54.456;9.752;2023-01-30T07:42:02;15.85;;;4.05;;
22441;SDS011;11388;54.456;9.752;2023-01-30T07:44:29;19.25;;;3.80;;
22441;SDS011;11388;54.456;9.752;2023-01-30T07:46:55;20.38;;;4.20;;
22441;SDS011;11388;54.456;9.752;2023-01-30T07:49:20;22.60;;;4.55;;
22441;SDS011;11388;54.456;9.752;2023-01-30T07:51:46;21.45;;;4.45;;
22441;SDS011;11388;54.456;9.752;2023-01-30T07:54:12;22.02;;;4.32;;
22441;SDS011;11388;54.456;9.752;2023-01-30T07:56:37;22.63;;;4.25;;
22441;SDS011;11388;54.456;9.752;2023-01-30T07:59:03;19.05;;;3.92;;
22441;SDS011;11388;54.456;9.752;2023-01-30T08:01:30;22.10;;;4.40;;
22441;SDS011;11388;54.456;9.752;2023-01-30T08:03:56;25.05;;;4.22;;
22441;SDS011;11388;54.456;9.752;2023-01-30T08:06:22;23.38;;;4.68;;
22441;SDS011;11388;54.456;9.752;2023-01-30T08:08:48;24.30;;;4.88;;
22441;SDS011;11388;54.456;9.752;2023-01-30T08:11:13;23.00;;;4.22;;
22441;SDS011;11388;54.456;9.752;2023-01-30T08:13:39;14.82;;;2.97;;
22441;SDS011;11388;54.456;9.752;2023-01-30T08:16:05;11.65;;;2.20;;
22441;SDS011;11388;54.456;9.752;2023-01-30T08:18:32;11.75;;;2.55;;
22441;SDS011;11388;54.456;9.752;2023-01-30T08:21:03;9.73;;;2.20;;
22441;SDS011;11388;54.456;9.752;2023-01-30T08:23:30;5.47;;;1.20;;
22441;SDS011;11388;54.456;9.752;2023-01-30T08:26:02;8.43;;;1.80;;
22441;SDS011;11388;54.456;9.752;2023-01-30T08:28:29;6.43;;;1.23;;
22441;SDS011;11388;54.456;9.752;2023-01-30T08:30:55;6.78;;;1.48;;
22441;SDS011;11388;54.456;9.752;2023-01-30T08:33:21;6.18;;;1.30;;
22441;SDS011;11388;54.456;9.752;2023-01-30T08:35:48;7.95;;;1.23;;
22441;SDS011;11388;54.456;9.752;2023-01-30T08:38:14;8.63;;;1.52;;
22441;SDS011;11388;54.456;9.752;2023-01-30T08:40:40;5.68;;;1.25;;
22441;SDS011;11388;54.456;9.752;2023-01-30T08:43:06;9.85;;;1.80;;
22441;SDS011;11388;54.456;9.752;2023-01-30T08:45:32;8.18;;;1.73;;
22441;SDS011;11388;54.456;9.752;2023-01-30T08:47:58;9.10;;;1.70;;
22441;SDS011;11388;54.456;9.752;2023-01-30T08:50:24;8.82;;;1.80;;
22441;SDS011;11388;54.456;9.752;2023-01-30T08:52:50;8.65;;;1.98;;
22441;SDS011;11388;54.456;9.752;2023-01-30T08:55:16;10.57;;;2.05;;
22441;SDS011;11388;54.456;9.752;2023-01-30T08:57:42;11.07;;;2.17;;
22441;SDS011;11388;54.456;9.752;2023-01-30T09:00:08;13.70;;;2.25;;
22441;SDS011;11388;54.456;9.752;2023-01-30T09:02:35;12.27;;;2.45;;
22441;SDS011;11388;54.456;9.752;2023-01-30T09:05:01;14.65;;;2.80;;
22441;SDS011;11388;54.456;9.752;2023-01-30T09:07:26;13.20;;;3.00;;
22441;SDS011;11388;54.456;9.752;2023-01-30T09:09:53;17.67;;;3.75;;
22441;SDS011;11388;54.456;9.752;2023-01-30T09:12:19;14.95;;;3.10;;
22441;SDS011;11388;54.456;9.752;2023-01-30T09:14:44;17.00;;;2.90;;
22441;SDS011;11388;54.456;9.752;2023-01-30T09:17:10;15.80;;;3.30;;
22441;SDS011;11388;54.456;9.752;2023-01-30T09:19:36;16.80;;;3.17;;
22441;SDS011;11388;54.456;9.752;2023-01-30T09:22:02;15.65;;;3.30;;
22441;SDS011;11388;54.456;9.752;2023-01-30T09:24:28;13.52;;;2.70;;
22441;SDS011;11388;54.456;9.752;2023-01-30T09:26:54;14.98;;;2.95;;
22441;SDS011;11388;54.456;9.752;2023-01-30T09:29:22;16.80;;;2.97;;
22441;SDS011;11388;54.456;9.752;2023-01-30T09:31:51;14.98;;;3.42;;
22441;SDS011;11388;54.456;9.752;2023-01-30T09:34:16;13.45;;;2.75;;
22441;SDS011;11388;54.456;9.752;2023-01-30T09:36:42;12.48;;;2.50;;
22441;SDS011;11388;54.456;9.752;2023-01-30T09:39:08;14.35;;;2.35;;
22441;SDS011;11388;54.456;9.752;2023-01-30T09:47:14;12.75;;;2.65;;
22441;SDS011;11388;54.456;9.752;2023-01-30T09:55:17;14.52;;;2.50;;
22441;SDS011;11388;54.456;9.752;2023-01-30T09:57:48;14.50;;;2.45;;
22441;SDS011;11388;54.456;9.752;2023-01-30T10:02:52;6.40;;;1.23;;
22441;SDS011;11388;54.456;9.752;2023-01-30T10:11:08;7.65;;;3.22;;
22441;SDS011;11388;54.456;9.752;2023-01-30T10:27:55;10.77;;;2.60;;
22441;SDS011;11388;54.456;9.752;2023-01-30T10:30:36;15.95;;;2.90;;
22441;SDS011;11388;54.456;9.752;2023-01-30T10:33:07;15.07;;;3.10;;
22441;SDS011;11388;54.456;9.752;2023-01-30T10:35:45;14.90;;;2.72;;
22441;SDS011;11388;54.456;9.752;2023-01-30T10:38:26;11.68;;;2.65;;
22441;SDS011;11388;54.456;9.752;2023-01-30T10:56:41;14.25;;;2.33;;
22441;SDS011;11388;54.456;9.752;2023-01-30T10:59:21;11.15;;;2.47;;
22441;SDS011;11388;54.456;9.752;2023-01-30T11:04:26;13.10;;;1.90;;
22441;SDS011;11388;54.456;9.752;2023-01-30T11:06:54;12.00;;;2.33;;
22441;SDS011;11388;54.456;9.752;2023-01-30T11:09:23;12.52;;;2.25;;
22441;SDS011;11388;54.456;9.752;2023-01-30T11:11:52;11.65;;;1.95;;
22441;SDS011;11388;54.456;9.752;2023-01-30T11:14:19;11.82;;;2.22;;
22441;SDS011;11388;54.456;9.752;2023-01-30T11:16:46;10.68;;;2.30;;
22441;SDS011;11388;54.456;9.752;2023-01-30T11:19:18;12.38;;;1.92;;
22441;SDS011;11388;54.456;9.752;2023-01-30T11:21:47;8.07;;;2.00;;
22441;SDS011;11388;54.456;9.752;2023-01-30T11:24:20;10.32;;;2.03;;
22441;SDS011;11388;54.456;9.752;2023-01-30T11:26:48;10.02;;;1.73;;
22441;SDS011;11388;54.456;9.752;2023-01-30T11:29:24;12.77;;;2.70;;
22441;SDS011;11388;54.456;9.752;2023-01-30T11:31:55;11.32;;;2.28;;
22441;SDS011;11388;54.456;9.752;2023-01-30T11:34:25;16.02;;;2.63;;
22441;SDS011;11388;54.456;9.752;2023-01-30T11:36:51;12.25;;;2.28;;
22441;SDS011;11388;54.456;9.752;2023-01-30T11:39:21;10.98;;;1.90;;
22441;SDS011;11388;54.456;9.752;2023-01-30T11:41:55;9.02;;;2.15;;
22441;SDS011;11388;54.456;9.752;2023-01-30T11:44:27;11.13;;;1.75;;
22441;SDS011;11388;54.456;9.752;2023-01-30T11:46:57;7.35;;;1.50;;
22441;SDS011;11388;54.456;9.752;2023-01-30T11:49:30;7.90;;;1.45;;
22441;SDS011;11388;54.456;9.752;2023-01-30T11:51:59;6.80;;;1.33;;
22441;SDS011;11388;54.456;9.752;2023-01-30T11:54:30;5.90;;;1.42;;
22441;SDS011;11388;54.456;9.752;2023-01-30T11:57:17;6.07;;;1.80;;
22441;SDS011;11388;54.456;9.752;2023-01-30T11:59:57;5.15;;;1.00;;
22441;SDS011;11388;54.456;9.752;2023-01-30T12:02:25;9.05;;;1.13;;
22441;SDS011;11388;54.456;9.752;2023-01-30T12:05:03;6.05;;;1.40;;
22441;SDS011;11388;54.456;9.752;2023-01-30T12:07:35;7.10;;;1.40;;
22441;SDS011;11388;54.456;9.752;2023-01-30T12:10:16;8.45;;;1.80;;
22441;SDS011;11388;54.456;9.752;2023-01-30T12:12:48;7.63;;;1.77;;
22441;SDS011;11388;54.456;9.752;2023-01-30T12:15:32;10.00;;;2.08;;
22441;SDS011;11388;54.456;9.752;2023-01-30T12:23:17;12.05;;;2.20;;
22441;SDS011;11388;54.456;9.752;2023-01-30T12:34:35;9.90;;;2.00;;
22441;SDS011;11388;54.456;9.752;2023-01-30T12:42:57;15.80;;;2.95;;
22441;SDS011;11388;54.456;9.752;2023-01-30T12:45:45;10.05;;;2.45;;
22441;SDS011;11388;54.456;9.752;2023-01-30T12:48:37;11.10;;;2.20;;
22441;SDS011;11388;54.456;9.752;2023-01-30T12:51:18;6.13;;;1.70;;
22441;SDS011;11388;54.456;9.752;2023-01-30T13:10:35;7.15;;;1.33;;
22441;SDS011;11388;54.456;9.752;2023-01-30T13:13:17;7.68;;;1.35;;
22441;SDS011;11388;54.456;9.752;2023-01-30T13:19:50;11.95;;;2.17;;
22441;SDS011;11388;54.456;9.752;2023-01-30T13:22:34;8.77;;;2.10;;
22441;SDS011;11388;54.456;9.752;2023-01-30T13:27:51;14.88;;;3.08;;
22441;SDS011;11388;54.456;9.752;2023-01-30T13:30:22;11.15;;;2.63;;
22441;SDS011;11388;54.456;9.752;2023-01-30T13:32:52;11.77;;;2.35;;
22441;SDS011;11388;54.456;9.752;2023-01-30T13:35:27;13.05;;;2.67;;
22441;SDS011;11388;54.456;9.752;2023-01-30T13:37:57;14.02;;;3.03;;
22441;SDS011;11388;54.456;9.752;2023-01-30T13:40:26;15.73;;;3.00;;
22441;SDS011;11388;54.456;9.752;2023-01-30T13:42:59;12.48;;;2.72;;
22441;SDS011;11388;54.456;9.752;2023-01-30T13:45:32;12.43;;;3.10;;
22441;SDS011;11388;54.456;9.752;2023-01-30T13:48:04;12.68;;;3.13;;
22441;SDS011;11388;54.456;9.752;2023-01-30T13:51:14;10.23;;;2.47;;
22441;SDS011;11388;54.456;9.752;2023-01-30T13:56:42;15.27;;;3.10;;
22441;SDS011;11388;54.456;9.752;2023-01-30T14:02:24;12.02;;;3.25;;
22441;SDS011;11388;54.456;9.752;2023-01-30T14:04:54;10.05;;;2.72;;
22441;SDS011;11388;54.456;9.752;2023-01-30T14:07:25;13.02;;;3.00;;
22441;SDS011;11388;54.456;9.752;2023-01-30T14:10:04;17.40;;;3.20;;
22441;SDS011;11388;54.456;9.752;2023-01-30T14:20:32;14.80;;;3.20;;
22441;SDS011;11388;54.456;9.752;2023-01-30T14:23:04;17.88;;;3.90;;
22441;SDS011;11388;54.456;9.752;2023-01-30T14:25:45;15.32;;;3.75;;
22441;SDS011;11388;54.456;9.752;2023-01-30T14:35:45;18.63;;;4.22;;
22441;SDS011;11388;54.456;9.752;2023-01-30T14:38:12;19.20;;;3.92;;
22441;SDS011;11388;54.456;9.752;2023-01-30T14:41:15;22.33;;;4.18;;
22441;SDS011;11388;54.456;9.752;2023-01-30T14:43:34;16.05;;;3.40;;
22441;SDS011;11388;54.456;9.752;2023-01-30T15:00:13;15.55;;;4.10;;
22441;SDS011;11388;54.456;9.752;2023-01-30T15:02:22;19.38;;;4.35;;
22441;SDS011;11388;54.456;9.752;2023-01-30T15:07:29;20.02;;;4.43;;
22441;SDS011;11388;54.456;9.752;2023-01-30T15:10:39;20.65;;;4.20;;
22441;SDS011;11388;54.456;9.752;2023-01-30T15:24:10;22.48;;;4.45;;
22441;SDS011;11388;54.456;9.752;2023-01-30T15:26:50;21.35;;;4.40;;
22441;SDS011;11388;54.456;9.752;2023-01-30T15:29:48;17.63;;;3.80;;
22441;SDS011;11388;54.456;9.752;2023-01-30T15:32:40;17.92;;;4.32;;
22441;SDS011;11388;54.456;9.752;2023-01-30T15:37:54;18.25;;;3.72;;
22441;SDS011;11388;54.456;9.752;2023-01-30T15:43:06;16.23;;;3.80;;
22441;SDS011;11388;54.456;9.752;2023-01-30T15:45:44;19.52;;;5.30;;
22441;SDS011;11388;54.456;9.752;2023-01-30T15:48:57;17.42;;;4.05;;
22441;SDS011;11388;54.456;9.752;2023-01-30T15:51:27;14.38;;;3.67;;
22441;SDS011;11388;54.456;9.752;2023-01-30T15:53:56;16.00;;;3.63;;
22441;SDS011;11388;54.456;9.752;2023-01-30T15:56:27;21.25;;;4.20;;
22441;SDS011;11388;54.456;9.752;2023-01-30T15:58:55;14.55;;;3.50;;
22441;SDS011;11388;54.456;9.752;2023-01-30T16:01:23;14.38;;;3.85;;
22441;SDS011;11388;54.456;9.752;2023-01-30T16:03:50;12.02;;;2.65;;
22441;SDS011;11388;54.456;9.752;2023-01-30T16:08:59;15.50;;;3.05;;
22441;SDS011;11388;54.456;9.752;2023-01-30T16:14:02;17.77;;;3.28;;
22441;SDS011;11388;54.456;9.752;2023-01-30T16:16:29;15.20;;;3.72;;
22441;SDS011;11388;54.456;9.752;2023-01-30T16:19:01;16.90;;;3.42;;
22441;SDS011;11388;54.456;9.752;2023-01-30T16:21:36;14.15;;;3.47;;
22441;SDS011;11388;54.456;9.752;2023-01-30T16:24:20;18.52;;;4.07;;
22441;SDS011;11388;54.456;9.752;2023-01-30T16:26:50;18.30;;;4.15;;
22441;SDS011;11388;54.456;9.752;2023-01-30T16:29:19;17.42;;;3.92;;
22441;SDS011;11388;54.456;9.752;2023-01-30T16:31:48;17.10;;;3.80;;
22441;SDS011;11388;54.456;9.752;2023-01-30T16:34:32;11.35;;;2.28;;
22441;SDS011;11388;54.456;9.752;2023-01-30T16:37:04;16.83;;;4.10;;
22441;SDS011;11388;54.456;9.752;2023-01-30T16:39:57;16.35;;;4.43;;
22441;SDS011;11388;54.456;9.752;2023-01-30T16:42:32;14.95;;;3.30;;
22441;SDS011;11388;54.456;9.752;2023-01-30T16:47:44;17.40;;;3.53;;
22441;SDS011;11388;54.456;9.752;2023-01-30T16:50:18;14.98;;;3.75;;
22441;SDS011;11388;54.456;9.752;2023-01-30T16:52:50;13.52;;;3.35;;
22441;SDS011;11388;54.456;9.752;2023-01-30T16:55:19;12.77;;;3.00;;
22441;SDS011;11388;54.456;9.752;2023-01-30T16:57:54;11.02;;;2.00;;
22441;SDS011;11388;54.456;9.752;2023-01-30T17:00:33;10.23;;;2.17;;
22441;SDS011;11388;54.456;9.752;2023-01-30T17:03:06;6.85;;;1.95;;
22441;SDS011;11388;54.456;9.752;2023-01-30T17:05:43;8.55;;;2.28;;
22441;SDS011;11388;54.456;9.752;2023-01-30T17:11:10;11.15;;;2.80;;
22441;SDS011;11388;54.456;9.752;2023-01-30T17:19:25;10.73;;;2.10;;
22441;SDS011;11388;54.456;9.752;2023-01-30T17:21:51;12.15;;;2.53;;
22441;SDS011;11388;54.456;9.752;2023-01-30T17:24:19;13.07;;;2.67;;
22441;SDS011;11388;54.456;9.752;2023-01-30T17:26:47;13.40;;;3.45;;
22441;SDS011;11388;54.456;9.752;2023-01-30T17:29:17;10.30;;;2.85;;
22441;SDS011;11388;54.456;9.752;2023-01-30T17:31:46;12.32;;;3.03;;
22441;SDS011;11388;54.456;9.752;2023-01-30T17:34:13;12.88;;;3.55;;
22441;SDS011;11388;54.456;9.752;2023-01-30T17:36:40;15.18;;;3.60;;
22441;SDS011;11388;54.456;9.752;2023-01-30T17:39:12;15.65;;;3.88;;
22441;SDS011;11388;54.456;9.752;2023-01-30T17:41:39;13.48;;;3.20;;
22441;SDS011;11388;54.456;9.752;2023-01-30T17:44:06;12.07;;;2.75;;
22441;SDS011;11388;54.456;9.752;2023-01-30T17:46:34;13.13;;;3.70;;
22441;SDS011;11388;54.456;9.752;2023-01-30T17:49:05;13.38;;;2.90;;
22441;SDS011;11388;54.456;9.752;2023-01-30T17:51:33;15.13;;;3.20;;
22441;SDS011;11388;54.456;9.752;2023-01-30T17:53:59;11.63;;;3.08;;
22441;SDS011;11388;54.456;9.752;2023-01-30T17:59:00;16.15;;;3.45;;
22441;SDS011;11388;54.456;9.752;2023-01-30T18:01:26;15.85;;;3.50;;
22441;SDS011;11388;54.456;9.752;2023-01-30T18:03:52;11.73;;;3.22;;
22441;SDS011;11388;54.456;9.752;2023-01-30T18:06:17;13.30;;;2.63;;
22441;SDS011;11388;54.456;9.752;2023-01-30T18:08:43;15.32;;;3.30;;
22441;SDS011;11388;54.456;9.752;2023-01-30T18:11:09;15.52;;;2.90;;
22441;SDS011;11388;54.456;9.752;2023-01-30T18:13:39;14.55;;;3.00;;
22441;SDS011;11388;54.456;9.752;2023-01-30T18:16:29;12.63;;;3.00;;
22441;SDS011;11388;54.456;9.752;2023-01-30T18:18:59;11.88;;;3.28;;